sensor_id;sensor_type;location;lat;lon;timestamp;temperature;humidity
19206;DHT22;59358;52.134;5.596;2023-05-28T00:00:51;13.30;99.90
19206;DHT22;59358;52.134;5.596;2023-05-28T00:03:17;13.30;99.90
19206;DHT22;59358;52.134;5.596;2023-05-28T00:05:45;13.30;99.90
19206;DHT22;59358;52.134;5.596;2023-05-28T00:08:12;13.30;99.90
19206;DHT22;59358;52.134;5.596;2023-05-28T00:10:42;13.20;99.90
19206;DHT22;59358;52.134;5.596;2023-05-28T00:13:09;13.20;99.90
19206;DHT22;59358;52.134;5.596;2023-05-28T00:15:35;13.20;99.90
19206;DHT22;59358;52.134;5.596;2023-05-28T00:18:03;13.10;99.90
19206;DHT22;59358;52.134;5.596;2023-05-28T00:20:30;13.10;99.90
19206;DHT22;59358;52.134;5.596;2023-05-28T00:22:57;13.00;99.90
19206;DHT22;59358;52.134;5.596;2023-05-28T00:25:23;13.00;99.90
19206;DHT22;59358;52.134;5.596;2023-05-28T00:27:51;13.00;99.90
19206;DHT22;59358;52.134;5.596;2023-05-28T00:30:18;12.90;99.90
19206;DHT22;59358;52.134;5.596;2023-05-28T00:32:46;12.90;99.90
19206;DHT22;59358;52.134;5.596;2023-05-28T00:35:13;12.90;99.90
19206;DHT22;59358;52.134;5.596;2023-05-28T00:37:39;12.80;99.90
19206;DHT22;59358;52.134;5.596;2023-05-28T00:40:07;12.80;99.90
19206;DHT22;59358;52.134;5.596;2023-05-28T00:42:34;12.80;99.90
19206;DHT22;59358;52.134;5.596;2023-05-28T00:45:03;12.70;99.90
19206;DHT22;59358;52.134;5.596;2023-05-28T00:47:30;12.70;99.90
19206;DHT22;59358;52.134;5.596;2023-05-28T00:49:56;12.60;99.90
19206;DHT22;59358;52.134;5.596;2023-05-28T00:52:26;12.60;99.90
19206;DHT22;59358;52.134;5.596;2023-05-28T00:54:53;12.60;99.90
19206;DHT22;59358;52.134;5.596;2023-05-28T00:57:21;12.60;99.90
19206;DHT22;59358;52.134;5.596;2023-05-28T00:59:49;12.50;99.90
19206;DHT22;59358;52.134;5.596;2023-05-28T01:02:18;12.50;99.90
19206;DHT22;59358;52.134;5.596;2023-05-28T01:04:45;12.40;99.90
19206;DHT22;59358;52.134;5.596;2023-05-28T01:07:12;12.40;99.90
19206;DHT22;59358;52.134;5.596;2023-05-28T01:09:39;12.40;99.90
19206;DHT22;59358;52.134;5.596;2023-05-28T01:12:08;12.40;99.90
19206;DHT22;59358;52.134;5.596;2023-05-28T01:14:36;12.30;99.90
19206;DHT22;59358;52.134;5.596;2023-05-28T01:17:03;12.30;99.90
19206;DHT22;59358;52.134;5.596;2023-05-28T01:19:32;12.30;99.90
19206;DHT22;59358;52.134;5.596;2023-05-28T01:22:03;12.20;99.90
19206;DHT22;59358;52.134;5.596;2023-05-28T01:24:32;12.20;99.90
19206;DHT22;59358;52.134;5.596;2023-05-28T01:26:59;12.20;99.90
19206;DHT22;59358;52.134;5.596;2023-05-28T01:29:26;12.20;99.90
19206;DHT22;59358;52.134;5.596;2023-05-28T01:31:53;12.20;99.90
19206;DHT22;59358;52.134;5.596;2023-05-28T01:34:20;12.20;99.90
19206;DHT22;59358;52.134;5.596;2023-05-28T01:36:55;12.20;99.90
19206;DHT22;59358;52.134;5.596;2023-05-28T01:39:26;12.20;99.90
19206;DHT22;59358;52.134;5.596;2023-05-28T01:41:55;12.20;99.90
19206;DHT22;59358;52.134;5.596;2023-05-28T01:44:22;12.10;99.90
19206;DHT22;59358;52.134;5.596;2023-05-28T01:46:50;12.10;99.90
19206;DHT22;59358;52.134;5.596;2023-05-28T01:49:19;12.10;99.90
19206;DHT22;59358;52.134;5.596;2023-05-28T01:51:46;12.10;99.90
19206;DHT22;59358;52.134;5.596;2023-05-28T01:54:13;12.10;99.90
19206;DHT22;59358;52.134;5.596;2023-05-28T01:56:40;12.10;99.90
19206;DHT22;59358;52.134;5.596;2023-05-28T01:59:08;12.10;99.90
19206;DHT22;59358;52.134;5.596;2023-05-28T02:01:34;12.00;99.90
19206;DHT22;59358;52.134;5.596;2023-05-28T02:04:02;12.00;99.90
19206;DHT22;59358;52.134;5.596;2023-05-28T02:06:30;12.00;99.90
19206;DHT22;59358;52.134;5.596;2023-05-28T02:08:58;12.00;99.90
19206;DHT22;59358;52.134;5.596;2023-05-28T02:11:25;11.90;99.90
19206;DHT22;59358;52.134;5.596;2023-05-28T02:13:52;11.90;99.90
19206;DHT22;59358;52.134;5.596;2023-05-28T02:16:21;11.90;99.90
19206;DHT22;59358;52.134;5.596;2023-05-28T02:18:50;11.90;99.90
19206;DHT22;59358;52.134;5.596;2023-05-28T02:21:18;11.90;99.90
19206;DHT22;59358;52.134;5.596;2023-05-28T02:23:47;11.90;99.90
19206;DHT22;59358;52.134;5.596;2023-05-28T02:26:14;11.80;99.90
19206;DHT22;59358;52.134;5.596;2023-05-28T02:28:41;11.80;99.90
19206;DHT22;59358;52.134;5.596;2023-05-28T02:31:08;11.80;99.90
19206;DHT22;59358;52.134;5.596;2023-05-28T02:33:37;11.90;99.90
19206;DHT22;59358;52.134;5.596;2023-05-28T02:36:04;11.90;99.90
19206;DHT22;59358;52.134;5.596;2023-05-28T02:38:31;11.90;99.90
19206;DHT22;59358;52.134;5.596;2023-05-28T02:40:58;11.90;99.90
19206;DHT22;59358;52.134;5.596;2023-05-28T02:43:25;11.90;99.90
19206;DHT22;59358;52.134;5.596;2023-05-28T02:45:51;11.90;99.90
19206;DHT22;59358;52.134;5.596;2023-05-28T02:48:19;11.90;99.90
19206;DHT22;59358;52.134;5.596;2023-05-28T02:50:47;11.90;99.90
19206;DHT22;59358;52.134;5.596;2023-05-28T02:53:14;11.90;99.90
19206;DHT22;59358;52.134;5.596;2023-05-28T02:55:41;11.90;99.90
19206;DHT22;59358;52.134;5.596;2023-05-28T02:58:07;11.90;99.90
19206;DHT22;59358;52.134;5.596;2023-05-28T03:00:34;12.00;99.90
19206;DHT22;59358;52.134;5.596;2023-05-28T03:03:01;12.00;99.90
19206;DHT22;59358;52.134;5.596;2023-05-28T03:05:29;12.00;99.90
19206;DHT22;59358;52.134;5.596;2023-05-28T03:07:58;12.00;99.90
19206;DHT22;59358;52.134;5.596;2023-05-28T03:10:25;12.00;99.90
19206;DHT22;59358;52.134;5.596;2023-05-28T03:12:51;12.00;99.90
19206;DHT22;59358;52.134;5.596;2023-05-28T03:15:18;12.00;99.90
19206;DHT22;59358;52.134;5.596;2023-05-28T03:17:45;11.90;99.90
19206;DHT22;59358;52.134;5.596;2023-05-28T03:20:12;11.90;99.90
19206;DHT22;59358;52.134;5.596;2023-05-28T03:22:40;11.90;99.90
19206;DHT22;59358;52.134;5.596;2023-05-28T03:25:09;11.90;99.90
19206;DHT22;59358;52.134;5.596;2023-05-28T03:27:36;11.90;99.90
19206;DHT22;59358;52.134;5.596;2023-05-28T03:30:04;11.80;99.90
19206;DHT22;59358;52.134;5.596;2023-05-28T03:32:33;11.80;99.90
19206;DHT22;59358;52.134;5.596;2023-05-28T03:35:00;11.80;99.90
19206;DHT22;59358;52.134;5.596;2023-05-28T03:37:26;11.80;99.90
19206;DHT22;59358;52.134;5.596;2023-05-28T03:39:53;11.80;99.90
19206;DHT22;59358;52.134;5.596;2023-05-28T03:42:21;11.90;99.90
19206;DHT22;59358;52.134;5.596;2023-05-28T03:44:48;11.80;99.90
19206;DHT22;59358;52.134;5.596;2023-05-28T03:47:15;11.80;99.90
19206;DHT22;59358;52.134;5.596;2023-05-28T03:49:41;11.80;99.90
19206;DHT22;59358;52.134;5.596;2023-05-28T03:52:09;11.90;99.90
19206;DHT22;59358;52.134;5.596;2023-05-28T03:54:36;11.80;99.90
19206;DHT22;59358;52.134;5.596;2023-05-28T03:57:02;11.90;99.90
19206;DHT22;59358;52.134;5.596;2023-05-28T03:59:30;11.90;99.90
19206;DHT22;59358;52.134;5.596;2023-05-28T04:01:57;11.90;99.90
19206;DHT22;59358;52.134;5.596;2023-05-28T04:04:24;12.00;99.90
19206;DHT22;59358;52.134;5.596;2023-05-28T04:06:51;12.00;99.90
19206;DHT22;59358;52.134;5.596;2023-05-28T04:09:17;12.00;99.90
19206;DHT22;59358;52.134;5.596;2023-05-28T04:11:44;12.00;99.90
19206;DHT22;59358;52.134;5.596;2023-05-28T04:14:11;12.10;99.90
19206;DHT22;59358;52.134;5.596;2023-05-28T04:16:39;12.20;99.90
19206;DHT22;59358;52.134;5.596;2023-05-28T04:19:06;12.20;99.90
19206;DHT22;59358;52.134;5.596;2023-05-28T04:21:33;12.20;99.90
19206;DHT22;59358;52.134;5.596;2023-05-28T04:24:00;12.30;99.90
19206;DHT22;59358;52.134;5.596;2023-05-28T04:26:27;12.30;99.90
19206;DHT22;59358;52.134;5.596;2023-05-28T04:28:53;12.30;99.90
19206;DHT22;59358;52.134;5.596;2023-05-28T04:31:20;12.40;99.90
19206;DHT22;59358;52.134;5.596;2023-05-28T04:33:48;12.50;99.90
19206;DHT22;59358;52.134;5.596;2023-05-28T04:36:15;12.60;99.90
19206;DHT22;59358;52.134;5.596;2023-05-28T04:38:42;12.60;99.90
19206;DHT22;59358;52.134;5.596;2023-05-28T04:41:09;12.60;99.90
19206;DHT22;59358;52.134;5.596;2023-05-28T04:43:39;12.60;99.90
19206;DHT22;59358;52.134;5.596;2023-05-28T04:46:06;12.60;99.90
19206;DHT22;59358;52.134;5.596;2023-05-28T04:48:34;12.70;99.90
19206;DHT22;59358;52.134;5.596;2023-05-28T04:51:04;12.70;99.90
19206;DHT22;59358;52.134;5.596;2023-05-28T04:53:31;12.70;99.90
19206;DHT22;59358;52.134;5.596;2023-05-28T04:55:59;12.70;99.90
19206;DHT22;59358;52.134;5.596;2023-05-28T04:58:25;12.60;99.90
19206;DHT22;59358;52.134;5.596;2023-05-28T05:00:52;12.70;99.90
19206;DHT22;59358;52.134;5.596;2023-05-28T05:03:21;12.70;99.90
19206;DHT22;59358;52.134;5.596;2023-05-28T05:05:48;12.70;99.90
19206;DHT22;59358;52.134;5.596;2023-05-28T05:08:16;12.70;99.90
19206;DHT22;59358;52.134;5.596;2023-05-28T05:10:43;12.70;99.90
19206;DHT22;59358;52.134;5.596;2023-05-28T05:13:10;12.60;99.90
19206;DHT22;59358;52.134;5.596;2023-05-28T05:15:36;12.60;99.90
19206;DHT22;59358;52.134;5.596;2023-05-28T05:18:03;12.50;99.90
19206;DHT22;59358;52.134;5.596;2023-05-28T05:20:30;12.60;99.90
19206;DHT22;59358;52.134;5.596;2023-05-28T05:22:57;12.60;99.90
19206;DHT22;59358;52.134;5.596;2023-05-28T05:25:25;12.60;99.90
19206;DHT22;59358;52.134;5.596;2023-05-28T05:27:52;12.60;99.90
19206;DHT22;59358;52.134;5.596;2023-05-28T05:30:19;12.60;99.90
19206;DHT22;59358;52.134;5.596;2023-05-28T05:32:46;12.60;99.90
19206;DHT22;59358;52.134;5.596;2023-05-28T05:35:13;12.60;99.90
19206;DHT22;59358;52.134;5.596;2023-05-28T05:37:40;12.70;99.90
19206;DHT22;59358;52.134;5.596;2023-05-28T05:40:07;12.70;99.90
19206;DHT22;59358;52.134;5.596;2023-05-28T05:42:36;12.80;99.90
19206;DHT22;59358;52.134;5.596;2023-05-28T05:45:04;12.90;99.90
19206;DHT22;59358;52.134;5.596;2023-05-28T05:47:31;13.10;99.90
19206;DHT22;59358;52.134;5.596;2023-05-28T05:49:58;13.30;99.90
19206;DHT22;59358;52.134;5.596;2023-05-28T05:52:25;13.40;99.90
19206;DHT22;59358;52.134;5.596;2023-05-28T05:54:52;13.60;99.90
19206;DHT22;59358;52.134;5.596;2023-05-28T05:57:19;13.80;99.90
19206;DHT22;59358;52.134;5.596;2023-05-28T05:59:47;14.00;99.90
19206;DHT22;59358;52.134;5.596;2023-05-28T06:02:13;14.00;99.90
19206;DHT22;59358;52.134;5.596;2023-05-28T06:04:40;14.10;99.90
19206;DHT22;59358;52.134;5.596;2023-05-28T06:07:07;14.30;99.90
19206;DHT22;59358;52.134;5.596;2023-05-28T06:09:34;14.30;99.90
19206;DHT22;59358;52.134;5.596;2023-05-28T06:12:00;14.30;99.90
19206;DHT22;59358;52.134;5.596;2023-05-28T06:14:27;14.40;99.90
19206;DHT22;59358;52.134;5.596;2023-05-28T06:16:56;14.50;99.90
19206;DHT22;59358;52.134;5.596;2023-05-28T06:19:23;14.60;99.90
19206;DHT22;59358;52.134;5.596;2023-05-28T06:21:50;14.60;99.90
19206;DHT22;59358;52.134;5.596;2023-05-28T06:24:17;14.70;99.90
19206;DHT22;59358;52.134;5.596;2023-05-28T06:26:44;14.80;99.90
19206;DHT22;59358;52.134;5.596;2023-05-28T06:29:11;14.90;99.90
19206;DHT22;59358;52.134;5.596;2023-05-28T06:31:38;14.90;99.90
19206;DHT22;59358;52.134;5.596;2023-05-28T06:34:07;14.90;99.90
19206;DHT22;59358;52.134;5.596;2023-05-28T06:36:34;15.10;99.90
19206;DHT22;59358;52.134;5.596;2023-05-28T06:39:03;15.10;99.90
19206;DHT22;59358;52.134;5.596;2023-05-28T06:41:29;15.40;99.90
19206;DHT22;59358;52.134;5.596;2023-05-28T06:43:56;15.50;99.90
19206;DHT22;59358;52.134;5.596;2023-05-28T06:46:23;15.70;99.90
19206;DHT22;59358;52.134;5.596;2023-05-28T06:48:50;16.00;99.90
19206;DHT22;59358;52.134;5.596;2023-05-28T06:51:18;16.20;99.90
19206;DHT22;59358;52.134;5.596;2023-05-28T06:53:45;16.20;99.90
19206;DHT22;59358;52.134;5.596;2023-05-28T06:56:12;16.40;99.90
19206;DHT22;59358;52.134;5.596;2023-05-28T06:58:38;16.40;99.90
19206;DHT22;59358;52.134;5.596;2023-05-28T07:01:05;16.50;99.90
19206;DHT22;59358;52.134;5.596;2023-05-28T07:03:32;16.70;99.90
19206;DHT22;59358;52.134;5.596;2023-05-28T07:06:00;16.90;99.90
19206;DHT22;59358;52.134;5.596;2023-05-28T07:08:28;17.00;99.90
19206;DHT22;59358;52.134;5.596;2023-05-28T07:10:55;17.30;99.90
19206;DHT22;59358;52.134;5.596;2023-05-28T07:13:22;17.40;99.90
19206;DHT22;59358;52.134;5.596;2023-05-28T07:15:49;17.50;99.90
19206;DHT22;59358;52.134;5.596;2023-05-28T07:18:16;17.40;99.90
19206;DHT22;59358;52.134;5.596;2023-05-28T07:20:43;17.50;99.90
19206;DHT22;59358;52.134;5.596;2023-05-28T07:23:09;17.70;99.90
19206;DHT22;59358;52.134;5.596;2023-05-28T07:25:38;17.70;99.90
19206;DHT22;59358;52.134;5.596;2023-05-28T07:28:04;17.80;99.90
19206;DHT22;59358;52.134;5.596;2023-05-28T07:30:31;18.00;99.90
19206;DHT22;59358;52.134;5.596;2023-05-28T07:32:58;18.20;99.90
19206;DHT22;59358;52.134;5.596;2023-05-28T07:35:25;18.30;99.90
19206;DHT22;59358;52.134;5.596;2023-05-28T07:37:52;18.40;99.90
19206;DHT22;59358;52.134;5.596;2023-05-28T07:40:20;18.50;99.90
19206;DHT22;59358;52.134;5.596;2023-05-28T07:42:48;18.80;99.90
19206;DHT22;59358;52.134;5.596;2023-05-28T07:45:14;19.10;99.90
19206;DHT22;59358;52.134;5.596;2023-05-28T07:47:41;19.00;99.90
19206;DHT22;59358;52.134;5.596;2023-05-28T07:50:09;19.00;99.90
19206;DHT22;59358;52.134;5.596;2023-05-28T07:52:36;19.10;99.90
19206;DHT22;59358;52.134;5.596;2023-05-28T07:55:03;19.20;99.90
19206;DHT22;59358;52.134;5.596;2023-05-28T07:57:30;19.30;99.90
19206;DHT22;59358;52.134;5.596;2023-05-28T07:59:59;19.30;99.90
19206;DHT22;59358;52.134;5.596;2023-05-28T08:02:26;19.50;99.90
19206;DHT22;59358;52.134;5.596;2023-05-28T08:04:53;19.60;99.90
19206;DHT22;59358;52.134;5.596;2023-05-28T08:07:20;19.70;99.90
19206;DHT22;59358;52.134;5.596;2023-05-28T08:09:46;19.80;99.90
19206;DHT22;59358;52.134;5.596;2023-05-28T08:12:13;19.90;99.90
19206;DHT22;59358;52.134;5.596;2023-05-28T08:14:40;20.10;99.90
19206;DHT22;59358;52.134;5.596;2023-05-28T08:17:08;20.10;99.90
19206;DHT22;59358;52.134;5.596;2023-05-28T08:19:35;20.20;99.90
19206;DHT22;59358;52.134;5.596;2023-05-28T08:22:02;20.40;99.90
19206;DHT22;59358;52.134;5.596;2023-05-28T08:24:29;20.50;99.90
19206;DHT22;59358;52.134;5.596;2023-05-28T08:26:56;20.50;99.90
19206;DHT22;59358;52.134;5.596;2023-05-28T08:29:23;20.50;99.90
19206;DHT22;59358;52.134;5.596;2023-05-28T08:31:50;20.60;99.90
19206;DHT22;59358;52.134;5.596;2023-05-28T08:34:18;20.90;99.90
19206;DHT22;59358;52.134;5.596;2023-05-28T08:36:45;21.30;99.90
19206;DHT22;59358;52.134;5.596;2023-05-28T08:39:11;21.30;99.90
19206;DHT22;59358;52.134;5.596;2023-05-28T08:41:38;21.30;99.90
19206;DHT22;59358;52.134;5.596;2023-05-28T08:44:05;21.50;99.90
19206;DHT22;59358;52.134;5.596;2023-05-28T08:46:32;21.50;99.90
19206;DHT22;59358;52.134;5.596;2023-05-28T08:49:00;21.40;99.90
19206;DHT22;59358;52.134;5.596;2023-05-28T08:51:30;21.70;99.90
19206;DHT22;59358;52.134;5.596;2023-05-28T08:53:59;21.60;99.90
19206;DHT22;59358;52.134;5.596;2023-05-28T08:56:26;21.90;99.90
19206;DHT22;59358;52.134;5.596;2023-05-28T08:58:53;21.80;99.90
19206;DHT22;59358;52.134;5.596;2023-05-28T09:01:22;21.90;99.90
19206;DHT22;59358;52.134;5.596;2023-05-28T09:03:49;22.00;99.90
19206;DHT22;59358;52.134;5.596;2023-05-28T09:06:16;22.00;99.90
19206;DHT22;59358;52.134;5.596;2023-05-28T09:08:45;21.90;99.90
19206;DHT22;59358;52.134;5.596;2023-05-28T09:11:13;21.90;99.90
19206;DHT22;59358;52.134;5.596;2023-05-28T09:13:43;21.80;99.90
19206;DHT22;59358;52.134;5.596;2023-05-28T09:16:10;22.10;99.90
19206;DHT22;59358;52.134;5.596;2023-05-28T09:18:37;22.20;99.90
19206;DHT22;59358;52.134;5.596;2023-05-28T09:21:07;22.50;99.90
19206;DHT22;59358;52.134;5.596;2023-05-28T09:23:34;22.70;99.90
19206;DHT22;59358;52.134;5.596;2023-05-28T09:26:02;22.50;99.90
19206;DHT22;59358;52.134;5.596;2023-05-28T09:28:29;22.50;99.90
19206;DHT22;59358;52.134;5.596;2023-05-28T09:31:02;22.60;99.90
19206;DHT22;59358;52.134;5.596;2023-05-28T09:33:29;22.50;99.90
19206;DHT22;59358;52.134;5.596;2023-05-28T09:35:59;22.50;99.90
19206;DHT22;59358;52.134;5.596;2023-05-28T09:38:26;22.50;99.90
19206;DHT22;59358;52.134;5.596;2023-05-28T09:40:53;22.50;99.90
19206;DHT22;59358;52.134;5.596;2023-05-28T09:43:27;22.60;99.80
19206;DHT22;59358;52.134;5.596;2023-05-28T09:46:06;22.40;99.90
19206;DHT22;59358;52.134;5.596;2023-05-28T09:48:33;22.30;99.90
19206;DHT22;59358;52.134;5.596;2023-05-28T09:51:03;22.20;99.90
19206;DHT22;59358;52.134;5.596;2023-05-28T09:53:31;22.20;99.90
19206;DHT22;59358;52.134;5.596;2023-05-28T09:55:59;22.20;99.90
19206;DHT22;59358;52.134;5.596;2023-05-28T09:58:31;22.40;99.90
19206;DHT22;59358;52.134;5.596;2023-05-28T10:01:03;22.60;99.90
19206;DHT22;59358;52.134;5.596;2023-05-28T10:03:34;22.90;99.90
19206;DHT22;59358;52.134;5.596;2023-05-28T10:06:06;23.00;99.70
19206;DHT22;59358;52.134;5.596;2023-05-28T10:08:37;22.90;99.70
19206;DHT22;59358;52.134;5.596;2023-05-28T10:11:05;23.00;99.70
19206;DHT22;59358;52.134;5.596;2023-05-28T10:13:35;23.00;99.90
19206;DHT22;59358;52.134;5.596;2023-05-28T10:16:02;23.00;99.90
19206;DHT22;59358;52.134;5.596;2023-05-28T10:18:30;22.80;98.30
19206;DHT22;59358;52.134;5.596;2023-05-28T10:20:58;22.60;98.80
19206;DHT22;59358;52.134;5.596;2023-05-28T10:23:25;22.60;99.30
19206;DHT22;59358;52.134;5.596;2023-05-28T10:25:53;23.00;99.60
19206;DHT22;59358;52.134;5.596;2023-05-28T10:28:21;23.20;99.40
19206;DHT22;59358;52.134;5.596;2023-05-28T10:31:02;23.40;99.50
19206;DHT22;59358;52.134;5.596;2023-05-28T10:33:30;23.50;98.50
19206;DHT22;59358;52.134;5.596;2023-05-28T10:35:59;23.70;98.80
19206;DHT22;59358;52.134;5.596;2023-05-28T10:38:26;23.90;98.90
19206;DHT22;59358;52.134;5.596;2023-05-28T10:40:59;24.00;97.70
19206;DHT22;59358;52.134;5.596;2023-05-28T10:43:40;24.10;97.10
19206;DHT22;59358;52.134;5.596;2023-05-28T10:46:10;24.10;96.40
19206;DHT22;59358;52.134;5.596;2023-05-28T10:48:39;24.10;97.00
19206;DHT22;59358;52.134;5.596;2023-05-28T10:51:06;24.40;96.50
19206;DHT22;59358;52.134;5.596;2023-05-28T10:53:33;24.40;95.70
19206;DHT22;59358;52.134;5.596;2023-05-28T10:56:01;24.10;95.60
19206;DHT22;59358;52.134;5.596;2023-05-28T10:58:33;24.10;95.00
19206;DHT22;59358;52.134;5.596;2023-05-28T11:01:03;24.30;94.70
19206;DHT22;59358;52.134;5.596;2023-05-28T11:03:41;24.20;94.70
19206;DHT22;59358;52.134;5.596;2023-05-28T11:06:09;24.20;94.90
19206;DHT22;59358;52.134;5.596;2023-05-28T11:08:42;24.20;95.30
19206;DHT22;59358;52.134;5.596;2023-05-28T11:11:11;24.30;94.20
19206;DHT22;59358;52.134;5.596;2023-05-28T11:13:38;24.40;94.40
19206;DHT22;59358;52.134;5.596;2023-05-28T11:16:06;24.60;94.30
19206;DHT22;59358;52.134;5.596;2023-05-28T11:18:33;24.70;93.80
19206;DHT22;59358;52.134;5.596;2023-05-28T11:21:04;24.70;93.60
19206;DHT22;59358;52.134;5.596;2023-05-28T11:23:33;24.90;94.00
19206;DHT22;59358;52.134;5.596;2023-05-28T11:26:00;25.00;93.70
19206;DHT22;59358;52.134;5.596;2023-05-28T11:28:27;24.70;93.20
19206;DHT22;59358;52.134;5.596;2023-05-28T11:30:56;24.50;93.50
19206;DHT22;59358;52.134;5.596;2023-05-28T11:33:25;24.60;93.60
19206;DHT22;59358;52.134;5.596;2023-05-28T11:35:59;24.80;93.80
19206;DHT22;59358;52.134;5.596;2023-05-28T11:38:27;24.90;93.30
19206;DHT22;59358;52.134;5.596;2023-05-28T11:40:58;24.90;94.40
19206;DHT22;59358;52.134;5.596;2023-05-28T11:43:26;25.00;94.30
19206;DHT22;59358;52.134;5.596;2023-05-28T11:45:58;24.80;94.60
19206;DHT22;59358;52.134;5.596;2023-05-28T11:48:25;24.70;94.60
19206;DHT22;59358;52.134;5.596;2023-05-28T11:50:58;24.50;95.10
19206;DHT22;59358;52.134;5.596;2023-05-28T11:53:29;24.50;95.20
19206;DHT22;59358;52.134;5.596;2023-05-28T11:56:04;24.50;95.20
19206;DHT22;59358;52.134;5.596;2023-05-28T11:58:31;24.40;94.90
19206;DHT22;59358;52.134;5.596;2023-05-28T12:00:58;24.20;95.30
19206;DHT22;59358;52.134;5.596;2023-05-28T12:03:26;24.20;95.10
19206;DHT22;59358;52.134;5.596;2023-05-28T12:05:53;24.50;94.90
19206;DHT22;59358;52.134;5.596;2023-05-28T12:08:20;24.80;94.80
19206;DHT22;59358;52.134;5.596;2023-05-28T12:10:48;25.10;95.00
19206;DHT22;59358;52.134;5.596;2023-05-28T12:13:15;25.30;94.30
19206;DHT22;59358;52.134;5.596;2023-05-28T12:15:42;25.20;93.90
19206;DHT22;59358;52.134;5.596;2023-05-28T12:18:10;25.20;94.30
19206;DHT22;59358;52.134;5.596;2023-05-28T12:20:39;25.10;94.00
19206;DHT22;59358;52.134;5.596;2023-05-28T12:23:07;25.10;94.10
19206;DHT22;59358;52.134;5.596;2023-05-28T12:25:44;25.10;93.80
19206;DHT22;59358;52.134;5.596;2023-05-28T12:28:13;25.10;94.80
19206;DHT22;59358;52.134;5.596;2023-05-28T12:30:41;25.30;94.00
19206;DHT22;59358;52.134;5.596;2023-05-28T12:33:09;25.30;93.90
19206;DHT22;59358;52.134;5.596;2023-05-28T12:35:35;25.20;94.10
19206;DHT22;59358;52.134;5.596;2023-05-28T12:38:02;25.00;93.90
19206;DHT22;59358;52.134;5.596;2023-05-28T12:40:29;25.00;93.70
19206;DHT22;59358;52.134;5.596;2023-05-28T12:42:56;24.90;94.10
19206;DHT22;59358;52.134;5.596;2023-05-28T12:45:24;25.20;93.80
19206;DHT22;59358;52.134;5.596;2023-05-28T12:47:51;25.20;93.40
19206;DHT22;59358;52.134;5.596;2023-05-28T12:50:19;25.00;93.60
19206;DHT22;59358;52.134;5.596;2023-05-28T12:52:48;25.10;93.30
19206;DHT22;59358;52.134;5.596;2023-05-28T12:55:15;25.30;94.00
19206;DHT22;59358;52.134;5.596;2023-05-28T12:57:42;25.50;93.30
19206;DHT22;59358;52.134;5.596;2023-05-28T13:00:09;25.70;93.80
19206;DHT22;59358;52.134;5.596;2023-05-28T13:02:38;26.00;92.60
19206;DHT22;59358;52.134;5.596;2023-05-28T13:05:06;26.10;92.30
19206;DHT22;59358;52.134;5.596;2023-05-28T13:07:34;25.90;93.10
19206;DHT22;59358;52.134;5.596;2023-05-28T13:10:00;25.70;92.50
19206;DHT22;59358;52.134;5.596;2023-05-28T13:12:30;25.60;93.50
19206;DHT22;59358;52.134;5.596;2023-05-28T13:14:58;25.60;93.30
19206;DHT22;59358;52.134;5.596;2023-05-28T13:17:25;25.80;92.50
19206;DHT22;59358;52.134;5.596;2023-05-28T13:19:54;26.00;92.80
19206;DHT22;59358;52.134;5.596;2023-05-28T13:22:20;26.20;92.50
19206;DHT22;59358;52.134;5.596;2023-05-28T13:24:47;26.60;92.30
19206;DHT22;59358;52.134;5.596;2023-05-28T13:27:14;26.60;90.70
19206;DHT22;59358;52.134;5.596;2023-05-28T13:29:41;26.60;90.90
19206;DHT22;59358;52.134;5.596;2023-05-28T13:32:08;26.50;90.60
19206;DHT22;59358;52.134;5.596;2023-05-28T13:34:35;26.50;90.80
19206;DHT22;59358;52.134;5.596;2023-05-28T13:37:03;26.30;90.90
19206;DHT22;59358;52.134;5.596;2023-05-28T13:39:30;26.10;91.50
19206;DHT22;59358;52.134;5.596;2023-05-28T13:41:57;26.00;91.20
19206;DHT22;59358;52.134;5.596;2023-05-28T13:44:23;26.00;91.60
19206;DHT22;59358;52.134;5.596;2023-05-28T13:46:50;26.00;91.70
19206;DHT22;59358;52.134;5.596;2023-05-28T13:49:17;26.10;91.80
19206;DHT22;59358;52.134;5.596;2023-05-28T13:51:44;26.30;91.70
19206;DHT22;59358;52.134;5.596;2023-05-28T13:54:12;26.60;91.30
19206;DHT22;59358;52.134;5.596;2023-05-28T13:56:39;26.50;91.20
19206;DHT22;59358;52.134;5.596;2023-05-28T13:59:06;26.10;91.10
19206;DHT22;59358;52.134;5.596;2023-05-28T14:01:34;26.10;90.60
19206;DHT22;59358;52.134;5.596;2023-05-28T14:04:01;26.10;91.00
19206;DHT22;59358;52.134;5.596;2023-05-28T14:06:28;26.30;90.30
19206;DHT22;59358;52.134;5.596;2023-05-28T14:08:56;26.20;90.40
19206;DHT22;59358;52.134;5.596;2023-05-28T14:11:24;26.20;90.70
19206;DHT22;59358;52.134;5.596;2023-05-28T14:13:51;26.10;90.20
19206;DHT22;59358;52.134;5.596;2023-05-28T14:16:18;25.90;90.40
19206;DHT22;59358;52.134;5.596;2023-05-28T14:18:45;25.90;90.90
19206;DHT22;59358;52.134;5.596;2023-05-28T14:21:11;26.10;89.20
19206;DHT22;59358;52.134;5.596;2023-05-28T14:23:38;26.60;90.90
19206;DHT22;59358;52.134;5.596;2023-05-28T14:26:05;27.10;88.50
19206;DHT22;59358;52.134;5.596;2023-05-28T14:28:33;27.30;85.40
19206;DHT22;59358;52.134;5.596;2023-05-28T14:31:00;27.40;86.20
19206;DHT22;59358;52.134;5.596;2023-05-28T14:33:26;27.60;84.30
19206;DHT22;59358;52.134;5.596;2023-05-28T14:35:56;27.70;83.20
19206;DHT22;59358;52.134;5.596;2023-05-28T14:38:23;27.90;82.90
19206;DHT22;59358;52.134;5.596;2023-05-28T14:40:50;27.90;82.40
19206;DHT22;59358;52.134;5.596;2023-05-28T14:43:17;27.80;80.80
19206;DHT22;59358;52.134;5.596;2023-05-28T14:45:45;27.40;81.40
19206;DHT22;59358;52.134;5.596;2023-05-28T14:48:12;27.50;80.70
19206;DHT22;59358;52.134;5.596;2023-05-28T14:50:38;27.60;80.90
19206;DHT22;59358;52.134;5.596;2023-05-28T14:53:05;27.80;79.50
19206;DHT22;59358;52.134;5.596;2023-05-28T14:55:32;28.10;78.70
19206;DHT22;59358;52.134;5.596;2023-05-28T14:57:59;28.20;79.00
19206;DHT22;59358;52.134;5.596;2023-05-28T15:00:25;28.30;76.50
19206;DHT22;59358;52.134;5.596;2023-05-28T15:02:53;28.30;76.60
19206;DHT22;59358;52.134;5.596;2023-05-28T15:05:20;27.70;76.80
19206;DHT22;59358;52.134;5.596;2023-05-28T15:07:47;27.50;76.20
19206;DHT22;59358;52.134;5.596;2023-05-28T15:10:14;27.70;76.40
19206;DHT22;59358;52.134;5.596;2023-05-28T15:12:41;27.80;75.90
19206;DHT22;59358;52.134;5.596;2023-05-28T15:15:08;28.30;73.60
19206;DHT22;59358;52.134;5.596;2023-05-28T15:17:35;28.40;73.00
19206;DHT22;59358;52.134;5.596;2023-05-28T15:20:04;28.60;72.70
19206;DHT22;59358;52.134;5.596;2023-05-28T15:22:31;28.80;72.00
19206;DHT22;59358;52.134;5.596;2023-05-28T15:24:58;28.70;70.30
19206;DHT22;59358;52.134;5.596;2023-05-28T15:27:25;28.40;68.70
19206;DHT22;59358;52.134;5.596;2023-05-28T15:29:52;28.30;70.70
19206;DHT22;59358;52.134;5.596;2023-05-28T15:32:19;28.70;69.50